Pagina principale
METAR-TAF:

METAR-TAF

Aeroporti :

Pisa, Italia

Aeroporto di Pisa-San Giusto

latitudine: 43-41N, longitudine: 010-23E, altezza: 2 m

Osservazione

Il bollettino è stato emesso 15 minuti fa, alle 10:15 UTC
Vento 2 kt da ovest
Temperature 20°C
Umidità 60%
Pressione 1020 hPa
Visibilità 10 km o più
Poco nuvoloso ad un'altezza di 4000 ft

METAR: LIRP 211015Z 28002KT 9999 FEW040 20/12 Q1020 NOSIG

Ora: 12:30 (10:30 UTC)

Previsione

Il bollettino è stato emesso 5 ore e 30 minuti fa, alle 05:00 UTC
Previsione valida dal 21 alle 06 UTC al 22 alle 06 UTC
Vento 6 kt da est/sud-est
Visibilità 10 km o più
Poco nuvoloso ad un'altezza di 8000 ft
Evoluzione graduale
dal 21 alle 10 UTC al 21 alle 12 UTC
Vento 13 kt da ovest
Evoluzione graduale
dal 21 alle 18 UTC al 21 alle 20 UTC
Vento 5 kt da est

TAF: LIRP 210500Z 2106/2206 11006KT 9999 FEW080 BECMG 2110/2112 27013KT BECMG 2118/2120 09005KT

Osservazioni e previsioni meteorologiche di più di 4000 aeroporti (messaggi METAR e TAF).

Le stazioni disponibili sono rappresentate dai dischi gialli e rossi sulla carta.

Puntare il mouse per vedere il nome della stazione.

Clicca sopra per visualizzare le osservazioni e previsioni meteorologiche.

Per cambiare la mappa : fare clic sui pulsanti verdi con una croce nera per ingrandire, il pulsante verde con un trattino per diminuire, o sulla freccia verde per le mappe adiacenti.


METAR-TAF: